Time;durP1;ratioP1;P1;durP2;ratioP2;P2;SDS_P1;SDS_P2;PMS_P1;PMS_P2;Temp;Humidity;BMP_temperature;BMP_pressure;BME280_temperature;BME280_humidity;BME280_pressure;Samples;Min_cycle;Max_cycle;Signal;HPM_P1;HPM_P2
2023/01/17 00:03:00;;;;;;;22.27;15.10;;;4.40;99.90;;;;;;6273598;28;20803;-65
2023/01/17 00:12:48;;;;;;;20.43;13.60;;;4.50;99.90;;;;;;6273428;28;20819;-62
2023/01/17 00:15:51;;;;;;;23.83;16.03;;;4.60;99.90;;;;;;6273274;28;20481;-63
2023/01/17 01:34:45;;;;;;;18.20;13.73;;;4.70;99.90;;;;;;6262673;28;20896;-64
2023/01/17 01:37:48;;;;;;;16.97;12.90;;;4.70;99.90;;;;;;6264936;28;20466;-64
2023/01/17 01:40:53;;;;;;;15.73;13.23;;;4.80;99.90;;;;;;6262180;28;20513;-64
2023/01/17 01:43:57;;;;;;;19.50;14.83;;;4.80;99.90;;;;;;6262542;28;20475;-64
2023/01/17 01:47:01;;;;;;;14.37;12.13;;;4.80;99.90;;;;;;6264468;28;20939;-63
2023/01/17 01:50:08;;;;;;;19.80;12.90;;;4.80;99.90;;;;;;6262650;28;20496;-63
2023/01/17 01:53:12;;;;;;;14.20;11.83;;;4.80;99.90;;;;;;6264637;28;20485;-64
2023/01/17 01:56:16;;;;;;;17.83;14.00;;;4.80;99.90;;;;;;6252746;28;21069;-64
2023/01/17 01:59:22;;;;;;;18.03;12.87;;;4.80;99.90;;;;;;6262692;28;20805;-64
2023/01/17 02:02:27;;;;;;;19.53;14.13;;;4.70;99.90;;;;;;6265638;28;20469;-64
2023/01/17 02:05:31;;;;;;;16.47;12.80;;;4.60;99.90;;;;;;6263825;28;20803;-64
2023/01/17 02:08:35;;;;;;;22.83;15.07;;;4.60;99.90;;;;;;6261080;28;20534;-64
2023/01/17 02:11:39;;;;;;;20.53;15.00;;;4.50;99.90;;;;;;6263360;28;21064;-64
2023/01/17 02:14:44;;;;;;;25.00;19.30;;;4.40;99.90;;;;;;6258828;28;20446;-64
2023/01/17 02:17:58;;;;;;;27.13;16.87;;;4.40;99.90;;;;;;6261577;28;20463;-62
2023/01/17 02:21:21;;;;;;;26.23;18.13;;;4.20;99.90;;;;;;6251106;28;20547;-62
2023/01/17 02:24:54;;;;;;;26.07;18.23;;;4.10;99.90;;;;;;6250873;28;20483;-62
2023/01/17 02:28:13;;;;;;;28.67;17.33;;;4.10;99.90;;;;;;6250210;28;20495;-62
2023/01/17 02:31:23;;;;;;;25.10;18.73;;;4.10;99.90;;;;;;6250403;28;20483;-62
2023/01/17 02:34:34;;;;;;;25.83;16.90;;;3.90;99.90;;;;;;6250255;28;20484;-62
2023/01/17 02:37:44;;;;;;;30.60;18.80;;;4.00;99.90;;;;;;6249648;28;20483;-64
2023/01/17 02:40:53;;;;;;;25.30;17.67;;;4.00;99.90;;;;;;6249906;28;20471;-64
2023/01/17 02:43:56;;;;;;;22.73;17.07;;;4.10;99.90;;;;;;6249939;28;20479;-65
2023/01/17 02:47:00;;;;;;;29.57;18.50;;;4.00;99.90;;;;;;6249693;28;20467;-64
2023/01/17 02:50:07;;;;;;;27.40;16.50;;;4.00;99.90;;;;;;6248703;28;20994;-64
2023/01/17 02:53:24;;;;;;;26.30;16.43;;;4.10;99.90;;;;;;6271137;28;20470;-64
2023/01/17 02:56:39;;;;;;;26.80;17.40;;;4.10;99.90;;;;;;6272756;28;20478;-64
2023/01/17 02:59:53;;;;;;;24.43;17.90;;;4.10;99.90;;;;;;6272969;28;20461;-64
2023/01/17 03:03:06;;;;;;;28.67;17.20;;;4.10;99.90;;;;;;6273566;28;20471;-64
2023/01/17 03:06:14;;;;;;;27.10;16.77;;;4.10;99.90;;;;;;6274111;28;20963;-64
2023/01/17 03:09:18;;;;;;;24.20;15.83;;;4.00;99.90;;;;;;6273900;28;20466;-64
2023/01/17 03:12:22;;;;;;;23.83;16.73;;;4.00;99.90;;;;;;6274547;28;20480;-64
2023/01/17 03:15:25;;;;;;;25.50;16.50;;;4.00;99.90;;;;;;6273934;28;20478;-64
2023/01/17 03:18:30;;;;;;;25.00;17.20;;;4.10;99.90;;;;;;6274414;28;20485;-64
2023/01/17 03:21:33;;;;;;;25.00;15.90;;;4.10;99.90;;;;;;6274518;28;20474;-64
2023/01/17 03:24:36;;;;;;;19.37;14.87;;;4.10;99.90;;;;;;6274499;28;20474;-64
2023/01/17 03:27:39;;;;;;;23.13;15.33;;;4.10;99.90;;;;;;6296848;28;20473;-64
2023/01/17 03:30:42;;;;;;;24.67;17.20;;;4.10;99.90;;;;;;6299344;28;20480;-65
2023/01/17 03:33:47;;;;;;;22.47;16.17;;;4.10;99.90;;;;;;6299379;28;20469;-61
2023/01/17 03:36:50;;;;;;;21.33;14.47;;;4.10;99.90;;;;;;6298989;28;20473;-61
2023/01/17 03:39:54;;;;;;;22.37;16.30;;;4.10;99.90;;;;;;6298811;28;20488;-62
2023/01/17 03:42:57;;;;;;;24.63;15.10;;;4.10;99.90;;;;;;6298831;28;20523;-62
2023/01/17 03:46:02;;;;;;;24.50;16.57;;;4.10;99.90;;;;;;6298928;28;20493;-62
2023/01/17 03:49:07;;;;;;;21.63;16.40;;;4.10;99.90;;;;;;6298725;28;20591;-62
2023/01/17 03:52:10;;;;;;;24.33;16.33;;;4.10;99.90;;;;;;6283977;28;20957;-62
2023/01/17 03:55:13;;;;;;;21.60;15.70;;;4.20;99.90;;;;;;6273725;28;20473;-62
2023/01/17 03:58:16;;;;;;;26.47;16.70;;;4.20;99.90;;;;;;6277552;28;20477;-62
2023/01/17 04:01:19;;;;;;;23.87;15.70;;;4.20;99.90;;;;;;6278511;28;20477;-62
2023/01/17 04:04:24;;;;;;;25.40;17.97;;;4.20;99.90;;;;;;6278480;28;20473;-62
2023/01/17 04:07:27;;;;;;;23.43;15.63;;;4.10;99.90;;;;;;6278180;28;20466;-62
2023/01/17 04:10:31;;;;;;;21.63;15.77;;;4.10;99.90;;;;;;6278369;28;20487;-62
2023/01/17 04:13:34;;;;;;;24.30;16.70;;;4.00;99.90;;;;;;6278238;28;20474;-62
2023/01/17 04:16:38;;;;;;;24.70;16.07;;;3.90;99.90;;;;;;6278273;28;20476;-62
2023/01/17 04:19:43;;;;;;;21.17;15.33;;;3.80;99.90;;;;;;6277459;28;20758;-62
2023/01/17 04:22:46;;;;;;;25.30;15.70;;;3.70;99.90;;;;;;6278108;28;20471;-62
2023/01/17 04:25:49;;;;;;;23.27;15.50;;;3.60;99.90;;;;;;6285717;28;20465;-62
2023/01/17 04:28:52;;;;;;;22.53;15.00;;;3.60;99.90;;;;;;6302542;28;20777;-62
2023/01/17 04:31:55;;;;;;;21.97;15.13;;;3.60;99.90;;;;;;6302873;28;20473;-62
2023/01/17 04:35:00;;;;;;;24.60;16.07;;;3.70;99.90;;;;;;6302640;28;20473;-62
2023/01/17 04:38:03;;;;;;;36.60;17.27;;;3.60;99.90;;;;;;6302350;28;20481;-62
2023/01/17 04:41:06;;;;;;;24.50;15.30;;;3.60;99.90;;;;;;6302375;28;20485;-62
2023/01/17 04:44:09;;;;;;;23.77;14.70;;;3.60;99.90;;;;;;6302453;28;20973;-62
2023/01/17 04:47:13;;;;;;;23.47;14.73;;;3.60;99.90;;;;;;6302465;28;20838;-62
2023/01/17 04:50:18;;;;;;;32.90;17.20;;;3.60;99.90;;;;;;6302047;28;20501;-63
2023/01/17 04:53:21;;;;;;;24.73;16.30;;;3.70;99.90;;;;;;6277719;28;20790;-63
2023/01/17 04:56:24;;;;;;;27.60;17.70;;;3.70;99.90;;;;;;6277443;28;20942;-62
2023/01/17 04:59:27;;;;;;;25.10;15.70;;;3.60;99.90;;;;;;6276899;28;20962;-62
2023/01/17 05:02:30;;;;;;;20.43;15.73;;;3.60;99.90;;;;;;6277371;28;20474;-63
2023/01/17 05:05:35;;;;;;;29.37;15.00;;;3.50;99.90;;;;;;6277085;28;20496;-62
2023/01/17 05:08:38;;;;;;;48.83;16.30;;;3.40;99.90;;;;;;6276720;28;20762;-63
2023/01/17 05:11:41;;;;;;;33.23;16.47;;;3.30;99.90;;;;;;6277070;28;20438;-62
2023/01/17 05:14:44;;;;;;;27.33;16.20;;;3.30;99.90;;;;;;6276464;28;20442;-63
2023/01/17 05:17:47;;;;;;;49.00;18.83;;;3.20;99.90;;;;;;6276569;28;20469;-62
2023/01/17 05:20:52;;;;;;;85.00;22.87;;;3.10;99.90;;;;;;6276796;28;20439;-62
2023/01/17 05:23:55;;;;;;;34.20;16.57;;;3.00;99.90;;;;;;6276509;28;20462;-62
2023/01/17 05:27:01;;;;;;;39.40;17.70;;;3.00;99.90;;;;;;6293779;28;20462;-63
2023/01/17 05:30:06;;;;;;;66.27;19.57;;;3.00;99.90;;;;;;6301311;28;20481;-62
2023/01/17 05:33:10;;;;;;;30.70;16.53;;;2.90;99.90;;;;;;6301550;28;20480;-63
2023/01/17 05:36:14;;;;;;;29.10;18.10;;;2.90;99.90;;;;;;6301143;28;20484;-63
2023/01/17 05:39:17;;;;;;;28.17;18.53;;;3.00;99.90;;;;;;6300891;28;20543;-63
2023/01/17 05:42:20;;;;;;;28.87;17.17;;;3.00;99.90;;;;;;6301275;28;20477;-63
2023/01/17 05:45:25;;;;;;;27.33;18.67;;;3.10;99.90;;;;;;6300629;28;20470;-63
2023/01/17 05:48:28;;;;;;;29.87;18.70;;;3.10;99.90;;;;;;6300607;28;20489;-64
2023/01/17 05:51:36;;;;;;;24.10;15.93;;;3.20;99.90;;;;;;6291361;28;20470;-63
2023/01/17 05:54:39;;;;;;;28.03;19.70;;;3.20;99.90;;;;;;6275926;28;20792;-63
2023/01/17 05:57:42;;;;;;;28.40;18.73;;;3.20;99.90;;;;;;6275758;28;20470;-63
2023/01/17 06:00:46;;;;;;;27.33;17.97;;;3.20;99.90;;;;;;6275942;28;20962;-63
2023/01/17 06:03:49;;;;;;;29.50;17.67;;;3.20;99.90;;;;;;6275727;28;20509;-63
2023/01/17 06:06:54;;;;;;;34.17;19.50;;;3.10;99.90;;;;;;6275393;28;20550;-63
2023/01/17 06:09:57;;;;;;;28.43;18.83;;;3.20;99.90;;;;;;6270914;28;20482;-63
2023/01/17 06:13:02;;;;;;;26.93;16.83;;;3.20;99.90;;;;;;6275301;28;20489;-63
2023/01/17 06:16:05;;;;;;;27.00;19.10;;;3.30;99.90;;;;;;6250498;28;20970;-63
2023/01/17 06:19:08;;;;;;;27.83;16.53;;;3.30;99.90;;;;;;6249707;28;20483;-63
2023/01/17 06:22:13;;;;;;;29.03;19.17;;;3.40;99.90;;;;;;6260982;28;20514;-63
2023/01/17 06:25:16;;;;;;;22.57;16.50;;;3.50;99.90;;;;;;6265947;28;20924;-63
2023/01/17 06:28:21;;;;;;;26.93;18.00;;;3.60;99.90;;;;;;6283080;28;20474;-64
2023/01/17 06:31:24;;;;;;;26.00;19.00;;;3.70;99.90;;;;;;6267200;28;20467;-64
2023/01/17 06:34:27;;;;;;;32.13;18.47;;;3.80;99.90;;;;;;6266563;28;20482;-63
2023/01/17 06:37:32;;;;;;;27.67;18.60;;;3.80;99.90;;;;;;6249966;28;20583;-63
2023/01/17 06:40:35;;;;;;;23.70;18.07;;;3.90;99.90;;;;;;6250613;28;20538;-63
2023/01/17 06:43:38;;;;;;;25.03;17.73;;;3.90;99.90;;;;;;6250422;28;20474;-63
2023/01/17 06:46:42;;;;;;;22.53;16.83;;;3.90;99.90;;;;;;6250106;28;20471;-63
2023/01/17 06:49:45;;;;;;;24.07;17.17;;;3.90;99.90;;;;;;6249679;28;20978;-63
2023/01/17 06:52:56;;;;;;;24.33;16.87;;;3.90;99.90;;;;;;6269762;28;20524;-63
2023/01/17 06:55:59;;;;;;;28.87;18.13;;;4.00;99.90;;;;;;6274987;28;20481;-62
2023/01/17 06:59:03;;;;;;;25.47;16.37;;;4.00;99.90;;;;;;6278887;28;21011;-62
2023/01/17 07:02:06;;;;;;;20.00;14.60;;;4.10;99.90;;;;;;6274761;28;20984;-62
2023/01/17 07:05:10;;;;;;;22.23;15.23;;;4.10;99.90;;;;;;6274241;28;20485;-62
2023/01/17 07:08:15;;;;;;;25.30;15.60;;;4.00;99.90;;;;;;6273323;28;20482;-62
2023/01/17 07:11:19;;;;;;;23.80;14.80;;;4.00;99.90;;;;;;6272976;28;20515;-62
2023/01/17 07:14:22;;;;;;;21.30;14.63;;;4.10;99.90;;;;;;6273156;28;20812;-62
2023/01/17 07:17:25;;;;;;;20.93;14.60;;;4.10;99.90;;;;;;6273200;28;20493;-62
2023/01/17 07:20:28;;;;;;;19.13;14.60;;;4.10;99.90;;;;;;6273521;28;20462;-62
2023/01/17 07:23:33;;;;;;;21.30;14.90;;;4.10;99.90;;;;;;6273967;28;20478;-62
2023/01/17 07:26:36;;;;;;;23.60;14.43;;;4.10;99.90;;;;;;6288487;28;20470;-62
2023/01/17 07:29:39;;;;;;;21.77;14.70;;;4.10;99.90;;;;;;6298673;28;20464;-62
2023/01/17 07:32:42;;;;;;;21.20;14.63;;;4.20;99.90;;;;;;6301771;28;20741;-62
2023/01/17 07:35:46;;;;;;;22.37;16.20;;;4.30;99.90;;;;;;6304502;28;20511;-62
2023/01/17 07:38:50;;;;;;;24.83;16.13;;;4.50;99.90;;;;;;6303882;28;20975;-63
2023/01/17 07:41:54;;;;;;;20.97;15.57;;;4.50;99.90;;;;;;6304077;28;20446;-63
2023/01/17 07:44:59;;;;;;;19.17;14.50;;;4.60;99.90;;;;;;6304115;28;20478;-63
2023/01/17 07:48:02;;;;;;;25.73;16.13;;;4.70;99.90;;;;;;6304187;28;20479;-64
2023/01/17 07:51:05;;;;;;;21.40;15.40;;;4.80;99.90;;;;;;6297697;28;20808;-64
2023/01/17 07:54:11;;;;;;;22.57;16.17;;;4.80;99.90;;;;;;6278761;28;20470;-64
2023/01/17 07:57:14;;;;;;;19.27;15.77;;;4.90;99.90;;;;;;6278903;28;20462;-64
2023/01/17 08:00:18;;;;;;;22.30;15.73;;;5.10;99.90;;;;;;6278384;28;20470;-64
2023/01/17 08:03:21;;;;;;;25.47;19.73;;;5.20;99.90;;;;;;6278688;28;20469;-63
2023/01/17 08:06:27;;;;;;;26.27;17.00;;;5.20;99.90;;;;;;6278578;28;20493;-64
2023/01/17 08:09:32;;;;;;;18.63;14.73;;;5.20;99.90;;;;;;6278751;28;20488;-64
2023/01/17 08:12:37;;;;;;;18.37;15.33;;;5.40;99.90;;;;;;6278594;28;20489;-64
2023/01/17 08:15:40;;;;;;;20.10;14.13;;;5.70;99.90;;;;;;6278775;28;20470;-64
2023/01/17 08:18:44;;;;;;;21.30;14.87;;;6.20;99.90;;;;;;6269018;28;20470;-64
2023/01/17 08:21:47;;;;;;;17.93;14.27;;;6.30;99.90;;;;;;6278552;28;20496;-64
2023/01/17 08:24:51;;;;;;;17.00;13.80;;;6.40;99.90;;;;;;6278277;28;20470;-64
2023/01/17 08:27:57;;;;;;;17.40;12.30;;;6.40;99.90;;;;;;6253151;28;20471;-64
2023/01/17 08:31:06;;;;;;;16.10;12.83;;;6.40;99.90;;;;;;6252609;28;20562;-64
2023/01/17 08:34:10;;;;;;;15.87;12.60;;;6.30;99.90;;;;;;6253367;28;20474;-64
2023/01/17 08:37:13;;;;;;;17.50;14.87;;;6.30;99.90;;;;;;6253170;28;20475;-64
2023/01/17 08:40:18;;;;;;;19.63;13.07;;;6.20;99.90;;;;;;6253383;28;20475;-64
2023/01/17 08:43:21;;;;;;;17.53;13.23;;;6.20;99.90;;;;;;6252163;28;20850;-64
2023/01/17 08:46:25;;;;;;;17.97;14.93;;;6.10;99.90;;;;;;6253118;28;20471;-64
2023/01/17 08:49:28;;;;;;;18.23;13.83;;;5.90;99.90;;;;;;6252338;28;20475;-64
2023/01/17 08:52:32;;;;;;;20.27;14.63;;;5.70;99.90;;;;;;6269758;28;20825;-64
2023/01/17 08:55:39;;;;;;;19.80;14.37;;;5.60;99.90;;;;;;6277513;28;20472;-64
2023/01/17 08:58:43;;;;;;;14.27;12.63;;;5.60;99.90;;;;;;6277373;28;20473;-64
2023/01/17 09:01:46;;;;;;;17.43;13.33;;;5.70;99.90;;;;;;6277511;28;20462;-64
2023/01/17 09:04:50;;;;;;;19.23;13.40;;;5.70;99.90;;;;;;6276835;28;20512;-64
2023/01/17 09:07:55;;;;;;;19.50;13.70;;;5.70;99.90;;;;;;6277016;28;20489;-64
2023/01/17 09:11:03;;;;;;;16.53;12.90;;;5.60;99.90;;;;;;6274015;28;20469;-64
2023/01/17 09:14:06;;;;;;;19.73;12.67;;;5.60;99.90;;;;;;6276918;28;20465;-64
2023/01/17 09:17:10;;;;;;;18.13;11.10;;;5.70;99.90;;;;;;6276684;28;20482;-64
2023/01/17 09:20:16;;;;;;;14.93;11.67;;;5.90;99.90;;;;;;6276727;28;20532;-64
2023/01/17 09:23:19;;;;;;;12.67;10.40;;;6.00;99.90;;;;;;6272599;28;20470;-64
2023/01/17 09:26:26;;;;;;;15.70;11.40;;;6.10;99.90;;;;;;6280291;28;20485;-64
2023/01/17 09:29:29;;;;;;;13.63;10.17;;;6.10;99.90;;;;;;6276639;28;20484;-65
2023/01/17 09:32:32;;;;;;;13.30;11.40;;;6.10;99.90;;;;;;6277223;28;20484;-65
2023/01/17 09:35:35;;;;;;;14.33;12.53;;;6.20;99.90;;;;;;6276361;28;20988;-65
2023/01/17 09:38:39;;;;;;;15.00;11.40;;;6.30;99.90;;;;;;6275532;28;20473;-65
2023/01/17 09:41:50;;;;;;;12.90;9.90;;;6.40;99.90;;;;;;6276777;28;20446;-65
2023/01/17 09:44:54;;;;;;;11.00;9.70;;;6.40;99.90;;;;;;6276380;28;20442;-66
2023/01/17 09:47:58;;;;;;;12.83;9.10;;;6.50;99.90;;;;;;6276424;28;23171;-65
2023/01/17 09:51:07;;;;;;;13.23;9.30;;;6.70;99.90;;;;;;6275452;28;20482;-64
2023/01/17 09:54:20;;;;;;;15.20;7.83;;;6.80;99.90;;;;;;6275260;28;20462;-64
2023/01/17 09:57:41;;;;;;;10.20;7.43;;;6.90;99.90;;;;;;6275810;28;20481;-63
2023/01/17 10:00:57;;;;;;;8.10;7.30;;;6.90;99.90;;;;;;6275749;28;20470;-64
2023/01/17 10:04:16;;;;;;;8.00;7.03;;;6.90;99.90;;;;;;6275660;28;20557;-64
2023/01/17 10:07:31;;;;;;;8.40;6.50;;;7.00;99.90;;;;;;6275103;28;20912;-66
2023/01/17 10:10:41;;;;;;;9.13;6.57;;;6.90;99.90;;;;;;6275810;28;20489;-65
2023/01/17 10:13:53;;;;;;;8.00;6.30;;;6.90;99.90;;;;;;6275388;28;20957;-66
2023/01/17 10:17:07;;;;;;;8.03;6.37;;;6.90;99.90;;;;;;6275232;28;20554;-63
2023/01/17 10:20:34;;;;;;;6.10;5.37;;;6.90;99.90;;;;;;6275555;28;20512;-63
2023/01/17 10:24:05;;;;;;;5.60;5.00;;;7.00;99.90;;;;;;6274889;28;20462;-63
2023/01/17 10:27:17;;;;;;;6.53;5.83;;;7.10;99.90;;;;;;6272135;28;20453;-66
2023/01/17 10:30:23;;;;;;;8.40;6.50;;;7.00;99.90;;;;;;6299910;28;20501;-62
2023/01/17 10:33:29;;;;;;;5.50;5.00;;;7.00;99.90;;;;;;6299795;28;20956;-63
2023/01/17 10:36:39;;;;;;;6.20;5.40;;;7.00;99.90;;;;;;6299429;28;20792;-63
2023/01/17 10:39:44;;;;;;;6.53;5.93;;;7.00;99.90;;;;;;6299532;28;20933;-63
2023/01/17 10:42:56;;;;;;;5.70;5.20;;;7.00;99.90;;;;;;6299536;28;20546;-65
2023/01/17 10:46:01;;;;;;;8.53;7.50;;;7.10;99.90;;;;;;6282345;28;20524;-64
2023/01/17 10:49:04;;;;;;;6.20;5.20;;;7.10;99.90;;;;;;6274535;28;20478;-64
2023/01/17 10:52:16;;;;;;;5.20;4.70;;;7.30;99.90;;;;;;6288789;28;20564;-63
2023/01/17 10:55:29;;;;;;;4.90;4.50;;;7.30;99.90;;;;;;6299736;28;20477;-64
2023/01/17 10:58:32;;;;;;;6.70;6.00;;;7.30;99.90;;;;;;6299144;28;20469;-64
2023/01/17 11:01:37;;;;;;;5.63;4.60;;;7.30;99.90;;;;;;6299511;28;20473;-63
2023/01/17 11:04:43;;;;;;;5.23;4.60;;;7.10;99.90;;;;;;6299855;28;20469;-63
2023/01/17 11:07:57;;;;;;;6.80;5.80;;;7.10;99.90;;;;;;6299045;28;20478;-64
2023/01/17 11:11:04;;;;;;;7.80;6.23;;;7.00;99.90;;;;;;6294047;28;20470;-61
2023/01/17 11:14:18;;;;;;;6.60;5.80;;;7.00;99.90;;;;;;6274462;28;20471;-61
2023/01/17 11:17:23;;;;;;;4.50;3.70;;;7.00;99.90;;;;;;6273574;28;20970;-62
2023/01/17 11:20:33;;;;;;;4.80;4.40;;;7.00;99.90;;;;;;6273591;28;20478;-61
2023/01/17 11:23:36;;;;;;;3.83;3.43;;;7.10;99.90;;;;;;6266927;28;20467;-61
2023/01/17 11:26:48;;;;;;;4.87;3.80;;;7.10;99.90;;;;;;6267530;28;20938;-61
2023/01/17 11:30:03;;;;;;;5.20;4.47;;;7.00;99.90;;;;;;6247980;28;20517;-61
2023/01/17 11:33:33;;;;;;;4.50;4.10;;;7.00;99.90;;;;;;6254706;28;20497;-61
2023/01/17 11:36:36;;;;;;;4.80;4.40;;;6.90;99.90;;;;;;6249006;28;21081;-61
2023/01/17 11:39:39;;;;;;;6.30;5.70;;;6.90;99.90;;;;;;6249037;28;20945;-61
2023/01/17 11:42:44;;;;;;;5.80;4.70;;;6.40;99.90;;;;;;6248973;28;20479;-61
2023/01/17 11:46:00;;;;;;;5.10;4.70;;;6.10;99.90;;;;;;6249598;28;20475;-61
2023/01/17 11:49:05;;;;;;;18.37;10.00;;;6.10;99.90;;;;;;6248679;28;20479;-61
2023/01/17 11:52:09;;;;;;;5.30;4.80;;;6.00;99.90;;;;;;6263308;28;20792;-61
2023/01/17 11:55:16;;;;;;;5.93;5.33;;;6.00;99.90;;;;;;6273472;28;20478;-62
2023/01/17 11:58:20;;;;;;;5.97;4.87;;;5.90;99.90;;;;;;6273713;28;20489;-61
2023/01/17 12:01:37;;;;;;;6.03;5.43;;;5.90;99.90;;;;;;6273357;28;20974;-61
2023/01/17 12:04:45;;;;;;;5.93;5.37;;;5.70;99.90;;;;;;6273398;28;20470;-61
2023/01/17 12:07:56;;;;;;;7.37;5.67;;;5.70;99.90;;;;;;6273429;28;20554;-64
2023/01/17 12:11:08;;;;;;;6.23;5.47;;;5.80;99.90;;;;;;6273400;28;20463;-64
2023/01/17 12:14:21;;;;;;;5.63;5.13;;;5.90;99.90;;;;;;6272867;28;20985;-65
2023/01/17 12:17:37;;;;;;;6.90;5.10;;;5.90;99.90;;;;;;6274050;28;20752;-65
2023/01/17 12:20:51;;;;;;;6.83;6.10;;;5.90;99.90;;;;;;6277974;28;20450;-64
2023/01/17 12:24:09;;;;;;;6.80;6.00;;;6.00;99.90;;;;;;6278257;28;20430;-63
2023/01/17 12:27:18;;;;;;;6.33;5.73;;;6.10;99.90;;;;;;6296682;28;21283;-63
2023/01/17 12:30:30;;;;;;;7.97;7.20;;;6.10;99.90;;;;;;6303100;28;20504;-63
2023/01/17 12:33:44;;;;;;;7.83;7.00;;;6.20;99.90;;;;;;6297778;28;20531;-62
2023/01/17 12:36:55;;;;;;;9.17;8.13;;;6.20;99.90;;;;;;6302502;28;20477;-63
2023/01/17 12:40:14;;;;;;;8.20;7.40;;;6.20;99.90;;;;;;6302301;28;20484;-62
2023/01/17 12:43:23;;;;;;;8.20;6.63;;;6.20;99.90;;;;;;6302599;28;20461;-63
2023/01/17 12:46:30;;;;;;;8.50;6.87;;;6.30;99.90;;;;;;6302260;28;20470;-62
2023/01/17 12:49:41;;;;;;;7.60;6.80;;;6.40;99.90;;;;;;6302268;28;20808;-63
2023/01/17 12:52:53;;;;;;;8.90;6.97;;;6.30;99.90;;;;;;6282636;28;20489;-62
2023/01/17 12:56:01;;;;;;;9.47;6.90;;;6.30;99.90;;;;;;6277588;28;20470;-62
2023/01/17 12:59:14;;;;;;;10.83;9.03;;;6.30;99.90;;;;;;6277115;28;20984;-63
2023/01/17 13:02:26;;;;;;;9.00;7.67;;;6.30;99.90;;;;;;6277595;28;20470;-62
2023/01/17 13:05:37;;;;;;;13.07;11.90;;;6.20;99.90;;;;;;6277143;28;20470;-62
2023/01/17 13:08:45;;;;;;;10.80;9.80;;;6.10;99.90;;;;;;6276699;28;20481;-61
2023/01/17 13:11:52;;;;;;;10.27;8.60;;;6.20;99.90;;;;;;6276405;28;20447;-63
2023/01/17 13:14:57;;;;;;;9.60;7.97;;;6.20;99.90;;;;;;6276668;28;20508;-63
2023/01/17 13:18:08;;;;;;;13.20;9.70;;;6.20;99.90;;;;;;6276644;28;20458;-63
2023/01/17 13:21:29;;;;;;;10.07;8.10;;;6.30;99.90;;;;;;6276363;28;20462;-64
2023/01/17 13:24:44;;;;;;;48.70;31.50;;;6.30;99.90;;;;;;6276318;28;20463;-64
2023/01/17 13:28:02;;;;;;;21.83;15.30;;;6.30;99.90;;;;;;6300514;28;20489;-62
2023/01/17 13:31:37;;;;;;;20.00;15.77;;;6.40;99.90;;;;;;6299945;28;20462;-63
2023/01/17 13:34:58;;;;;;;20.00;15.97;;;6.40;99.90;;;;;;6298852;28;21047;-62
2023/01/17 13:38:58;;;;;;;8.43;6.63;;;6.50;99.90;;;;;;6296408;28;20480;-63
2023/01/17 13:42:12;;;;;;;7.60;6.00;;;6.50;99.90;;;;;;6235423;28;20469;-63
2023/01/17 13:45:20;;;;;;;7.50;6.50;;;6.60;99.90;;;;;;6300898;28;20783;-61
2023/01/17 13:48:29;;;;;;;7.63;6.83;;;6.70;99.90;;;;;;6300712;28;20481;-64
2023/01/17 13:52:03;;;;;;;5.87;5.20;;;6.70;99.90;;;;;;6291612;28;20962;-63
2023/01/17 13:55:07;;;;;;;6.73;5.90;;;6.70;99.90;;;;;;6275465;28;20478;-63
2023/01/17 13:58:36;;;;;;;8.33;7.00;;;6.70;99.90;;;;;;6275851;28;20477;-63
2023/01/17 14:01:52;;;;;;;10.57;6.20;;;6.70;99.90;;;;;;6275454;28;20469;-64
2023/01/17 14:05:13;;;;;;;6.93;6.23;;;6.70;99.90;;;;;;6275617;28;20475;-62
2023/01/17 14:08:20;;;;;;;6.13;5.60;;;6.70;99.90;;;;;;6275296;28;20474;-62
2023/01/17 14:11:24;;;;;;;8.37;7.47;;;6.70;99.90;;;;;;6275217;28;20473;-63
2023/01/17 14:14:55;;;;;;;7.37;6.43;;;6.70;99.90;;;;;;6274920;28;20488;-63
2023/01/17 14:18:00;;;;;;;6.87;6.17;;;6.70;99.90;;;;;;6275144;28;20458;-63
2023/01/17 14:21:08;;;;;;;6.30;5.70;;;6.70;99.90;;;;;;6275301;28;20466;-63
2023/01/17 14:24:16;;;;;;;8.77;7.57;;;6.70;99.90;;;;;;6255566;28;20471;-62
2023/01/17 14:27:24;;;;;;;8.00;7.10;;;6.70;99.90;;;;;;6290397;28;20470;-63
2023/01/17 14:30:35;;;;;;;11.00;8.13;;;6.70;99.90;;;;;;6299920;28;20476;-61
2023/01/17 14:33:40;;;;;;;8.50;7.50;;;6.60;99.90;;;;;;6259918;28;20487;-63
2023/01/17 14:36:43;;;;;;;8.67;7.77;;;6.60;99.90;;;;;;6249953;28;20475;-61
2023/01/17 14:39:48;;;;;;;9.90;8.33;;;6.60;99.90;;;;;;6249850;28;20463;-62
2023/01/17 14:42:58;;;;;;;8.87;7.97;;;6.50;99.90;;;;;;6240464;28;20858;-63
2023/01/17 14:46:06;;;;;;;10.93;8.97;;;6.30;99.90;;;;;;6249902;28;20482;-64
2023/01/17 14:49:22;;;;;;;11.00;9.90;;;6.30;99.90;;;;;;6270734;28;20486;-62
2023/01/17 14:52:26;;;;;;;12.80;9.20;;;6.30;99.90;;;;;;6274195;28;20478;-61
2023/01/17 14:55:29;;;;;;;9.50;8.13;;;6.30;99.90;;;;;;6274538;28;20540;-61
2023/01/17 14:58:33;;;;;;;10.17;8.43;;;6.30;99.90;;;;;;6274065;28;20478;-60
2023/01/17 15:01:39;;;;;;;8.90;7.60;;;6.40;99.90;;;;;;6274537;28;20470;-60
2023/01/17 15:04:43;;;;;;;12.43;8.33;;;6.40;99.90;;;;;;6274470;28;20475;-60
2023/01/17 15:07:49;;;;;;;9.47;8.13;;;6.40;99.90;;;;;;6267835;28;20474;-60
2023/01/17 15:10:57;;;;;;;9.53;8.27;;;6.30;99.90;;;;;;6273961;28;20480;-61
2023/01/17 15:14:04;;;;;;;8.23;7.23;;;6.40;99.90;;;;;;6274060;28;20955;-61
2023/01/17 15:17:18;;;;;;;9.97;8.30;;;6.40;99.90;;;;;;6274150;28;20852;-61
2023/01/17 15:20:21;;;;;;;9.57;8.33;;;6.40;99.90;;;;;;6274244;28;20474;-61
2023/01/17 15:23:30;;;;;;;11.90;9.63;;;6.40;99.90;;;;;;6274165;28;20474;-61
2023/01/17 15:26:34;;;;;;;9.50;8.33;;;6.40;99.90;;;;;;6287517;28;20469;-61
2023/01/17 15:29:40;;;;;;;14.10;9.90;;;6.30;99.90;;;;;;6298769;28;20496;-60
2023/01/17 15:32:48;;;;;;;12.00;9.17;;;6.00;99.90;;;;;;6299016;28;20452;-60
2023/01/17 15:35:59;;;;;;;13.90;9.97;;;6.00;99.90;;;;;;6298991;28;20469;-61
2023/01/17 15:39:06;;;;;;;18.77;10.27;;;6.00;99.90;;;;;;6298708;28;20461;-61
2023/01/17 15:42:21;;;;;;;10.60;9.53;;;6.00;99.90;;;;;;6286869;28;20483;-62
2023/01/17 15:45:28;;;;;;;13.83;10.20;;;6.10;99.90;;;;;;6252985;28;20470;-61
2023/01/17 15:48:41;;;;;;;13.13;10.50;;;6.10;99.90;;;;;;6264565;28;20475;-61
2023/01/17 15:51:50;;;;;;;10.63;8.50;;;6.10;99.90;;;;;;6264428;28;20482;-63
2023/01/17 15:54:57;;;;;;;11.13;9.70;;;6.00;99.90;;;;;;6265369;28;20917;-63
2023/01/17 15:58:01;;;;;;;10.00;8.03;;;6.00;99.90;;;;;;6265635;28;20471;-63
2023/01/17 16:01:16;;;;;;;12.80;10.80;;;5.80;99.90;;;;;;6267280;28;20821;-63
2023/01/17 16:04:28;;;;;;;11.07;8.37;;;5.40;99.90;;;;;;6268149;28;20467;-64
2023/01/17 16:07:33;;;;;;;10.00;8.13;;;5.40;99.90;;;;;;6264193;28;20473;-63
2023/01/17 16:10:38;;;;;;;8.50;7.00;;;5.40;99.90;;;;;;6267385;28;20470;-63
2023/01/17 16:13:46;;;;;;;9.30;7.83;;;5.40;99.90;;;;;;6278062;28;20476;-63
2023/01/17 16:16:53;;;;;;;8.53;7.80;;;5.40;99.90;;;;;;6278313;28;20473;-63
2023/01/17 16:19:58;;;;;;;9.50;8.50;;;5.50;99.90;;;;;;6277599;28;20484;-63
2023/01/17 16:23:01;;;;;;;8.80;7.70;;;5.60;99.90;;;;;;6270572;28;20526;-63
2023/01/17 16:26:05;;;;;;;9.47;8.57;;;5.60;99.90;;;;;;6269239;28;20471;-63
2023/01/17 16:29:09;;;;;;;9.03;8.13;;;5.60;99.90;;;;;;6263727;28;20478;-62
2023/01/17 16:32:14;;;;;;;9.40;8.03;;;5.60;99.90;;;;;;6263583;28;20477;-62
2023/01/17 16:35:21;;;;;;;8.30;7.43;;;5.50;99.90;;;;;;6255619;28;20801;-61
2023/01/17 16:38:25;;;;;;;8.00;7.17;;;5.50;99.90;;;;;;6252535;28;20553;-63
2023/01/17 16:41:28;;;;;;;9.07;7.80;;;5.50;99.90;;;;;;6255816;28;20791;-62
2023/01/17 16:44:32;;;;;;;7.93;7.13;;;5.50;99.90;;;;;;6269033;28;20474;-62
2023/01/17 16:47:35;;;;;;;6.73;6.13;;;5.50;99.90;;;;;;6263408;28;20795;-61
2023/01/17 16:50:46;;;;;;;7.43;6.73;;;5.40;99.90;;;;;;6260995;28;20490;-61
2023/01/17 16:53:50;;;;;;;8.33;7.53;;;5.30;99.90;;;;;;6263544;28;20443;-61
2023/01/17 16:56:53;;;;;;;7.50;6.80;;;5.40;99.90;;;;;;6262901;28;20438;-61
2023/01/17 16:59:56;;;;;;;9.20;6.97;;;5.30;99.90;;;;;;6270961;28;20462;-61
2023/01/17 17:03:00;;;;;;;7.73;6.93;;;5.30;99.90;;;;;;6266828;28;20439;-61
2023/01/17 17:06:05;;;;;;;7.70;7.00;;;5.40;99.90;;;;;;6259428;28;20482;-62
2023/01/17 17:09:08;;;;;;;10.57;7.43;;;5.50;99.90;;;;;;6262751;28;20471;-63
2023/01/17 17:12:12;;;;;;;8.57;7.37;;;5.50;99.90;;;;;;6261552;28;20478;-62
2023/01/17 17:15:15;;;;;;;8.47;7.30;;;5.50;99.90;;;;;;6251648;28;20780;-62
2023/01/17 17:18:19;;;;;;;9.50;8.70;;;5.60;99.90;;;;;;6266576;28;20481;-63
2023/01/17 17:21:24;;;;;;;9.63;8.80;;;5.70;99.90;;;;;;6276287;28;20469;-63
2023/01/17 17:24:28;;;;;;;11.13;9.10;;;5.60;99.90;;;;;;6276373;28;20466;-63
2023/01/17 17:27:32;;;;;;;10.77;9.77;;;5.70;99.90;;;;;;6298351;28;20469;-65
2023/01/17 17:30:36;;;;;;;12.60;8.37;;;5.70;99.90;;;;;;6300813;28;20434;-65
2023/01/17 17:33:40;;;;;;;8.70;7.80;;;5.70;99.90;;;;;;6300844;28;20795;-65
2023/01/17 17:36:45;;;;;;;7.97;7.30;;;5.70;99.90;;;;;;6300917;28;20372;-65